Time;durP1;ratioP1;P1;durP2;ratioP2;P2;SDS_P1;SDS_P2;PMS_P1;PMS_P2;Temp;Humidity;BMP_temperature;BMP_pressure;BME280_temperature;BME280_humidity;BME280_pressure;Samples;Min_cycle;Max_cycle;Signal;HPM_P1;HPM_P2
2022/06/25 00:01:17;;;;;;;8.45;2.58;;;;;;;27.00;42.37;100632.50;5054254;28;20045;-81
2022/06/25 00:03:45;;;;;;;4.25;2.20;;;;;;;27.02;42.28;100641.34;5055650;28;20044;-81
2022/06/25 00:06:13;;;;;;;4.88;1.70;;;;;;;27.03;42.85;100637.56;5055629;28;20052;-81
2022/06/25 00:08:44;;;;;;;4.85;2.05;;;;;;;27.03;42.76;100642.19;5054231;28;20053;-80
2022/06/25 00:12:31;;;;;;;5.20;2.25;;;;;;;27.04;42.55;100636.53;5054661;28;20037;-80
2022/06/25 00:14:07;;;;;;;4.13;1.67;;;;;;;27.04;42.46;100633.81;5054737;28;20416;-80
2022/06/25 00:16:34;;;;;;;;;;;;;;;27.04;42.76;100625.66;5056065;28;20052;-79
2022/06/25 00:19:05;;;;;;;5.07;2.25;;;;;;;27.05;42.90;100624.63;5055173;28;19921;-79
2022/06/25 00:21:32;;;;;;;5.07;2.60;;;;;;;27.05;42.87;100627.34;5054382;28;20485;-79
2022/06/25 00:24:00;;;;;;;3.78;1.88;;;;;;;27.06;42.97;100631.78;5053665;28;20057;-79
2022/06/25 00:26:27;;;;;;;5.47;2.20;;;;;;;27.07;42.81;100624.47;5054953;28;20044;-79
2022/06/25 00:28:55;;;;;;;3.60;1.92;;;;;;;27.07;43.29;100625.31;5055449;28;20053;-79
2022/06/25 00:31:22;;;;;;;2.80;1.80;;;;;;;27.08;43.03;100629.69;5054785;28;20049;-79
2022/06/25 00:33:50;;;;;;;4.97;1.75;;;;;;;27.09;43.07;100634.09;5055036;28;20060;-80
2022/06/25 00:36:18;;;;;;;5.47;2.20;;;;;;;27.09;43.43;100619.66;5054386;28;20033;-78
2022/06/25 00:38:45;;;;;;;3.80;2.10;;;;;;;27.10;43.06;100621.38;5052997;28;20045;-78
2022/06/25 00:41:13;;;;;;;4.18;1.98;;;;;;;27.11;43.22;100628.53;5054843;28;20055;-78
2022/06/25 00:43:41;;;;;;;3.97;2.00;;;;;;;27.11;43.38;100625.81;5053530;28;20064;-77
2022/06/25 00:46:08;;;;;;;4.15;2.05;;;;;;;27.12;43.21;100627.47;5053402;28;20049;-77
2022/06/25 00:48:36;;;;;;;5.65;2.05;;;;;;;27.12;43.57;100630.19;5054438;28;20060;-77
2022/06/25 00:51:12;;;;;;;4.93;2.03;;;;;;;27.13;43.39;100631.03;5055218;28;20052;-78
2022/06/25 00:53:42;;;;;;;4.32;1.95;;;;;;;27.14;43.83;100627.28;5052474;28;20053;-77
2022/06/25 00:56:12;;;;;;;4.30;1.70;;;;;;;27.14;43.89;100628.13;5052706;28;20052;-77
2022/06/25 00:58:42;;;;;;;5.50;2.00;;;;;;;27.15;43.71;100615.41;5053263;28;20056;-78
2022/06/25 01:01:12;;;;;;;4.40;2.00;;;;;;;27.14;43.78;100616.41;5055239;28;20056;-78
2022/06/25 01:03:40;;;;;;;5.07;2.13;;;;;;;27.15;43.92;100618.13;5053715;28;20072;-78
2022/06/25 01:06:07;;;;;;;5.65;2.38;;;;;;;27.14;43.74;100624.56;5055744;28;20052;-78
2022/06/25 01:08:35;;;;;;;5.22;2.03;;;;;;;27.16;43.90;100622.53;5057085;28;20045;-77
2022/06/25 01:11:03;;;;;;;3.60;1.70;;;;;;;27.16;44.01;100633.38;5055864;28;20045;-78
2022/06/25 01:13:31;;;;;;;5.22;2.08;;;;;;;27.16;43.93;100628.78;5057011;28;20412;-78
2022/06/25 01:15:58;;;;;;;5.88;1.92;;;;;;;27.15;44.27;100618.97;5054903;28;20049;-80
2022/06/25 01:18:26;;;;;;;4.38;1.88;;;;;;;27.16;44.13;100630.69;5056271;28;20056;-80
2022/06/25 01:20:53;;;;;;;3.53;1.90;;;;;;;27.16;44.07;100626.06;5057231;28;20052;-81
2022/06/25 01:23:21;;;;;;;5.13;2.10;;;;;;;27.16;44.11;100625.25;5057487;28;20136;-78
2022/06/25 01:25:49;;;;;;;4.28;2.17;;;;;;;27.16;43.96;100619.81;5057605;28;20045;-78
2022/06/25 01:28:16;;;;;;;3.65;2.03;;;;;;;27.17;44.16;100616.03;5056881;28;20056;-78
2022/06/25 01:30:44;;;;;;;4.93;2.38;;;;;;;27.17;43.63;100613.34;5058579;28;20072;-78
2022/06/25 01:33:11;;;;;;;5.88;1.98;;;;;;;27.17;44.02;100625.03;5056996;28;20053;-78
2022/06/25 01:35:41;;;;;;;4.00;2.00;;;;;;;27.18;44.02;100615.84;5057242;28;20059;-78
2022/06/25 01:38:08;;;;;;;4.68;1.95;;;;;;;27.19;44.33;100619.44;5056735;28;20052;-78
2022/06/25 01:40:36;;;;;;;5.13;1.95;;;;;;;27.18;44.09;100610.41;5056162;28;20409;-77
2022/06/25 01:43:06;;;;;;;4.18;2.20;;;;;;;27.18;44.24;100615.00;5057230;28;20040;-79
2022/06/25 01:45:36;;;;;;;3.33;1.88;;;;;;;27.19;44.19;100617.56;5039516;28;20045;-79
2022/06/25 01:48:06;;;;;;;4.60;1.80;;;;;;;27.19;44.09;100616.72;5056176;28;20049;-79
2022/06/25 01:50:35;;;;;;;4.00;1.75;;;;;;;27.19;44.40;100612.13;5057815;28;20053;-79
2022/06/25 01:53:04;;;;;;;5.75;2.13;;;;;;;27.18;44.43;100610.41;5056248;28;20496;-81
2022/06/25 01:55:32;;;;;;;2.88;2.00;;;;;;;27.19;44.36;100614.00;5039338;28;20060;-78
2022/06/25 01:58:00;;;;;;;6.00;2.40;;;;;;;27.20;44.08;100618.41;5056364;28;20053;-79
2022/06/25 02:00:31;;;;;;;4.30;1.90;;;;;;;27.19;44.16;100611.28;5055655;28;20418;-79
2022/06/25 02:03:06;;;;;;;5.97;2.17;;;;;;;27.20;44.36;100619.22;5054718;28;20075;-79
2022/06/25 02:08:22;;;;;;;4.93;2.20;;;;;;;27.20;44.60;100624.66;5055540;28;20053;-78
2022/06/25 02:10:49;;;;;;;7.72;2.67;;;;;;;27.21;44.56;100629.06;5057513;28;20377;-78
2022/06/25 02:13:17;;;;;;;5.40;2.00;;;;;;;27.21;44.36;100628.22;5055081;28;20044;-78
2022/06/25 02:15:45;;;;;;;4.68;2.13;;;;;;;27.21;44.55;100641.81;5052859;28;20401;-78
2022/06/25 02:18:12;;;;;;;4.20;2.03;;;;;;;27.20;44.26;100642.84;5054426;28;20051;-78
2022/06/25 02:20:40;;;;;;;5.38;2.28;;;;;;;27.19;44.37;100642.00;5054167;28;20052;-78
2022/06/25 02:23:10;;;;;;;7.38;2.50;;;;;;;27.18;44.04;100651.19;5057364;28;20056;-79
2022/06/25 02:25:37;;;;;;;8.20;2.75;;;;;;;27.17;43.94;100660.38;5039854;28;20056;-79
2022/06/25 02:28:12;;;;;;;6.32;2.47;;;;;;;27.17;44.19;100659.53;5056264;28;20104;-79
2022/06/25 02:30:40;;;;;;;6.20;2.25;;;;;;;27.18;44.46;100653.06;5055403;28;20053;-79
2022/06/25 02:33:11;;;;;;;5.00;2.15;;;;;;;27.16;44.04;100644.25;5056052;28;20055;-81
2022/06/25 02:35:41;;;;;;;5.15;2.67;;;;;;;27.16;44.11;100641.53;5039047;28;20060;-80
2022/06/25 02:38:11;;;;;;;5.00;1.92;;;;;;;27.15;44.25;100634.44;5038521;28;20045;-80
2022/06/25 02:40:39;;;;;;;5.88;2.17;;;;;;;27.16;43.98;100638.81;5053809;28;20049;-81
2022/06/25 02:43:08;;;;;;;4.57;1.90;;;;;;;27.15;44.05;100629.00;5053894;28;20060;-80
2022/06/25 02:45:40;;;;;;;4.57;2.33;;;;;;;27.15;44.39;100626.28;5054982;28;20049;-79
2022/06/25 02:48:09;;;;;;;6.28;2.53;;;;;;;27.16;44.17;100627.97;5055255;28;20056;-80
2022/06/25 02:50:37;;;;;;;3.85;2.45;;;;;;;27.16;44.57;100626.06;5055297;28;20531;-80
2022/06/25 02:53:08;;;;;;;5.10;2.30;;;;;;;27.17;44.24;100629.63;5055568;28;20418;-80
2022/06/25 03:01:11;;;;;;;4.38;2.20;;;;;;;27.17;44.17;100632.34;5054987;28;20049;-80
2022/06/25 03:03:38;;;;;;;4.90;2.60;;;;;;;27.17;44.38;100626.91;5055313;28;20053;-81
2022/06/25 03:06:06;;;;;;;6.18;2.05;;;;;;;27.16;44.24;100617.94;5054488;28;20111;-81
2022/06/25 03:08:35;;;;;;;7.40;2.88;;;;;;;27.16;44.02;100630.69;5054722;28;20053;-81
2022/06/25 03:11:03;;;;;;;5.50;2.10;;;;;;;27.15;44.14;100620.84;5056115;28;20045;-81
2022/06/25 03:13:34;;;;;;;5.65;2.03;;;;;;;27.15;44.39;100629.00;5054845;28;20508;-80
2022/06/25 03:16:01;;;;;;;6.00;2.60;;;;;;;27.14;44.02;100617.25;5055228;28;20492;-81
2022/06/25 03:18:29;;;;;;;7.30;3.03;;;;;;;27.13;44.20;100622.88;5055493;28;20056;-81
2022/06/25 03:21:23;;;;;;;6.78;2.72;;;;;;;27.13;44.09;100622.88;5056302;28;20497;-81
2022/06/25 03:23:58;;;;;;;6.20;2.42;;;;;;;27.11;43.85;100639.41;5039483;28;20053;-81
2022/06/25 03:26:25;;;;;;;7.00;2.63;;;;;;;27.11;44.00;100645.66;5054159;28;20037;-81
2022/06/25 03:28:55;;;;;;;6.25;2.65;;;;;;;27.12;43.85;100649.22;5054529;28;20056;-81
2022/06/25 03:31:24;;;;;;;8.40;2.58;;;;;;;27.13;44.03;100659.06;5054625;28;20072;-81
2022/06/25 03:33:53;;;;;;;7.57;2.65;;;;;;;27.13;44.10;100664.50;5054462;28;20053;-81
2022/06/25 03:36:43;;;;;;;6.65;2.53;;;;;;;27.14;44.10;100673.47;5054103;28;20049;-81
2022/06/25 03:39:11;;;;;;;5.15;2.60;;;;;;;27.14;44.44;100674.31;5038305;28;20052;-81
2022/06/25 03:41:41;;;;;;;10.52;3.40;;;;;;;27.14;44.65;100663.44;5055235;28;20049;-81
2022/06/25 03:44:34;;;;;;;6.55;2.78;;;;;;;27.14;44.73;100666.16;5052978;28;20064;-81
2022/06/25 03:47:10;;;;;;;5.72;3.03;;;;;;;27.15;44.70;100667.03;5053661;28;20045;-81
2022/06/25 03:49:39;;;;;;;5.65;2.22;;;;;;;27.14;44.32;100666.16;5037549;28;20485;-80
2022/06/25 03:52:11;;;;;;;5.30;2.45;;;;;;;27.14;44.99;100668.03;5053759;28;20060;-80
2022/06/25 03:54:38;;;;;;;8.88;2.83;;;;;;;27.12;44.33;100662.81;5055295;28;20493;-80
2022/06/25 03:57:06;;;;;;;5.07;2.42;;;;;;;27.13;44.38;100669.09;5055159;28;20037;-80
2022/06/25 03:59:45;;;;;;;6.03;1.92;;;;;;;27.12;44.76;100676.41;5039057;28;20064;-81
2022/06/25 04:02:38;;;;;;;6.63;2.33;;;;;;;27.10;44.40;100679.31;5055552;28;20116;-80
2022/06/25 04:05:24;;;;;;;4.72;2.60;;;;;;;27.11;44.79;100700.00;5062475;28;20064;-80
2022/06/25 04:07:52;;;;;;;5.55;2.53;;;;;;;27.11;44.16;100694.59;5053976;28;20060;-80
2022/06/25 04:10:19;;;;;;;6.75;2.63;;;;;;;27.10;44.42;100701.06;5053645;28;20485;-81
2022/06/25 04:12:47;;;;;;;4.70;2.75;;;;;;;27.10;44.36;100700.19;5054028;28;20060;-81
2022/06/25 04:15:15;;;;;;;4.97;3.08;;;;;;;27.09;44.55;100706.63;5053655;28;20053;-80
2022/06/25 04:17:42;;;;;;;6.40;2.97;;;;;;;27.09;44.40;100712.06;5052519;28;20053;-80
2022/06/25 04:20:11;;;;;;;5.13;2.25;;;;;;;27.09;44.70;100712.91;5055149;28;20412;-80
2022/06/25 04:22:39;;;;;;;5.95;2.55;;;;;;;27.09;45.00;100714.78;5054205;28;20045;-80
2022/06/25 04:25:07;;;;;;;6.07;2.13;;;;;;;27.10;45.36;100721.91;5037051;28;20049;-80
2022/06/25 04:30:22;;;;;;;5.35;2.58;;;;;;;27.11;45.00;100718.19;5053783;28;20060;-81
2022/06/25 04:32:52;;;;;;;10.00;3.05;;;;;;;27.10;44.83;100714.66;5037649;28;20057;-81
2022/06/25 04:35:23;;;;;;;6.22;2.72;;;;;;;27.09;45.14;100721.03;5055520;28;20049;-82
2022/06/25 04:37:52;;;;;;;6.22;2.47;;;;;;;27.10;44.93;100728.22;5053108;28;20485;-81
2022/06/25 04:40:20;;;;;;;6.30;2.50;;;;;;;27.11;45.21;100721.75;5055595;28;20057;-81
2022/06/25 04:42:50;;;;;;;4.18;2.53;;;;;;;27.11;45.11;100721.75;5055776;28;20401;-81
2022/06/25 04:45:18;;;;;;;5.43;2.30;;;;;;;27.12;45.48;100736.19;5055244;28;20404;-80
2022/06/25 04:48:05;;;;;;;6.90;3.00;;;;;;;27.13;45.40;100737.03;5056506;28;20041;-81
2022/06/25 04:50:58;;;;;;;10.70;3.05;;;;;;;27.11;44.88;100735.34;5057585;28;20052;-81
2022/06/25 04:53:26;;;;;;;4.25;2.92;;;;;;;27.12;44.87;100741.63;5057623;28;20412;-81
2022/06/25 04:55:54;;;;;;;3.85;2.30;;;;;;;27.13;44.95;100747.91;5056132;28;20048;-81
2022/06/25 04:58:21;;;;;;;6.20;2.38;;;;;;;27.12;45.23;100747.06;5056090;28;20058;-80
2022/06/25 05:00:54;;;;;;;6.60;2.47;;;;;;;27.13;45.12;100753.31;5064722;28;20063;-81
2022/06/25 05:03:21;;;;;;;4.05;2.13;;;;;;;27.11;45.00;100751.66;5058186;28;20060;-81
2022/06/25 05:06:08;;;;;;;5.70;2.28;;;;;;;27.13;45.54;100753.31;5056073;28;20048;-80
2022/06/25 05:08:37;;;;;;;6.78;2.88;;;;;;;27.12;45.46;100752.50;5055718;28;20507;-80
2022/06/25 05:11:05;;;;;;;7.25;2.70;;;;;;;27.13;45.39;100748.72;5055825;28;20101;-80
2022/06/25 05:13:32;;;;;;;7.15;2.83;;;;;;;27.13;45.29;100756.03;5055659;28;20053;-80
2022/06/25 05:16:00;;;;;;;7.05;2.90;;;;;;;27.14;45.50;100755.00;5056764;28;20053;-81
2022/06/25 05:18:27;;;;;;;7.93;3.35;;;;;;;27.13;45.65;100746.00;5056513;28;20045;-81
2022/06/25 05:20:55;;;;;;;7.07;3.15;;;;;;;27.14;46.10;100744.13;5056473;28;20389;-81
2022/06/25 05:23:22;;;;;;;6.65;3.00;;;;;;;27.14;45.88;100758.56;5056318;28;20056;-81
2022/06/25 05:25:51;;;;;;;4.97;3.00;;;;;;;27.14;45.69;100763.16;5055074;28;20044;-81
2022/06/25 05:28:18;;;;;;;5.10;3.03;;;;;;;27.15;46.23;100764.88;5056124;28;20508;-81
2022/06/25 05:30:47;;;;;;;5.45;3.13;;;;;;;27.14;46.17;100761.28;5055249;28;20409;-81
2022/06/25 05:33:14;;;;;;;9.45;3.63;;;;;;;27.15;45.99;100764.88;5055627;28;20052;-81
2022/06/25 05:35:42;;;;;;;7.50;4.10;;;;;;;27.14;46.14;100766.72;5055751;28;20045;-81
2022/06/25 05:38:09;;;;;;;7.85;4.32;;;;;;;27.14;46.09;100771.31;5055282;28;20049;-81
2022/06/25 05:40:39;;;;;;;6.55;3.60;;;;;;;27.15;46.35;100775.75;5056365;28;20053;-79
2022/06/25 05:43:06;;;;;;;7.43;3.88;;;;;;;27.14;46.11;100772.16;5054802;28;20059;-80
2022/06/25 05:45:34;;;;;;;9.85;3.83;;;;;;;27.16;46.10;100774.69;5057024;28;20041;-81
2022/06/25 05:48:02;;;;;;;5.95;3.53;;;;;;;27.15;46.47;100770.31;5057691;28;20056;-81
2022/06/25 05:50:30;;;;;;;5.75;3.20;;;;;;;27.15;46.28;100773.88;5055692;28;20045;-80
2022/06/25 05:52:58;;;;;;;6.18;3.35;;;;;;;27.16;46.62;100775.53;5055004;28;20056;-81
2022/06/25 05:55:25;;;;;;;6.80;3.80;;;;;;;27.17;46.51;100781.81;5056021;28;20056;-81
2022/06/25 05:57:53;;;;;;;7.32;3.15;;;;;;;27.16;46.78;100778.25;5056687;28;20048;-81
2022/06/25 06:00:20;;;;;;;5.20;3.10;;;;;;;27.17;46.75;100787.25;5055389;28;20049;-81
2022/06/25 06:02:47;;;;;;;8.85;4.18;;;;;;;27.17;47.06;100779.94;5056115;28;20056;-81
2022/06/25 06:05:15;;;;;;;6.55;3.38;;;;;;;27.17;46.90;100782.66;5056235;28;20040;-81
2022/06/25 06:07:42;;;;;;;6.47;3.03;;;;;;;27.18;47.40;100786.22;5039477;28;20508;-80
2022/06/25 06:10:10;;;;;;;4.55;2.60;;;;;;;27.18;47.26;100783.50;5057698;28;20040;-81
2022/06/25 06:12:37;;;;;;;5.20;2.75;;;;;;;27.19;47.07;100793.38;5055484;28;20044;-80
2022/06/25 06:15:05;;;;;;;6.13;2.67;;;;;;;27.20;47.25;100786.91;5056699;28;20049;-81
2022/06/25 06:17:32;;;;;;;5.50;3.22;;;;;;;27.20;47.34;100795.03;5055569;28;20049;-79
2022/06/25 06:20:00;;;;;;;6.30;3.15;;;;;;;27.21;47.04;100794.00;5055818;28;20393;-80
2022/06/25 06:22:28;;;;;;;6.45;2.92;;;;;;;27.21;47.63;100799.44;5057690;28;20045;-80
2022/06/25 06:24:56;;;;;;;8.85;2.85;;;;;;;27.22;47.38;100801.97;5057261;28;20045;-80
2022/06/25 06:27:23;;;;;;;4.55;2.92;;;;;;;27.20;47.82;100798.59;5055367;28;20061;-79
2022/06/25 06:29:50;;;;;;;8.10;3.17;;;;;;;27.16;48.21;100801.88;5055231;28;20048;-79
2022/06/25 06:32:18;;;;;;;4.43;2.83;;;;;;;27.14;47.88;100803.94;5054578;28;20048;-80
2022/06/25 06:34:45;;;;;;;8.50;3.20;;;;;;;27.10;48.53;100804.31;5038668;28;20048;-80
2022/06/25 06:37:13;;;;;;;6.20;3.40;;;;;;;27.07;48.39;100799.22;5055775;28;20060;-80
2022/06/25 06:39:45;;;;;;;6.10;3.42;;;;;;;27.03;48.87;100794.31;5057027;28;20060;-79
2022/06/25 06:42:14;;;;;;;7.95;2.95;;;;;;;27.01;49.07;100783.63;5056328;28;20376;-79
2022/06/25 06:44:41;;;;;;;8.48;3.53;;;;;;;26.98;49.46;100796.72;5055634;28;20045;-79
2022/06/25 06:47:08;;;;;;;9.40;3.50;;;;;;;26.95;49.05;100797.97;5037516;28;20057;-79
2022/06/25 06:49:38;;;;;;;6.75;3.45;;;;;;;26.93;48.91;100791.00;5055298;28;20052;-78
2022/06/25 06:52:06;;;;;;;6.00;3.35;;;;;;;26.94;48.64;100801.72;5055499;28;20052;-79
2022/06/25 06:54:33;;;;;;;8.48;3.10;;;;;;;26.92;48.69;100801.03;5056093;28;20045;-80
2022/06/25 06:57:00;;;;;;;6.10;3.38;;;;;;;26.89;48.99;100806.81;5056351;28;20045;-80
2022/06/25 06:59:28;;;;;;;7.45;2.85;;;;;;;26.87;49.18;100801.59;5056791;28;20048;-79
2022/06/25 07:01:55;;;;;;;6.80;3.42;;;;;;;26.87;48.98;100807.03;5054834;28;20535;-80
2022/06/25 07:04:23;;;;;;;5.65;2.80;;;;;;;26.87;48.87;100798.03;5055505;28;20358;-79
2022/06/25 07:06:50;;;;;;;5.72;3.00;;;;;;;26.85;48.74;100795.47;5055944;28;20041;-79
2022/06/25 07:09:17;;;;;;;7.68;2.85;;;;;;;26.85;48.63;100792.75;5054677;28;20045;-80
2022/06/25 07:11:45;;;;;;;8.60;3.22;;;;;;;26.85;48.70;100797.34;5054094;28;20060;-79
2022/06/25 07:14:13;;;;;;;6.20;3.03;;;;;;;26.86;48.61;100790.91;5056006;28;20045;-83
2022/06/25 07:16:41;;;;;;;7.35;3.08;;;;;;;26.88;48.46;100791.56;5055822;28;20511;-81
2022/06/25 07:19:10;;;;;;;5.45;2.55;;;;;;;26.87;48.29;100787.16;5053682;28;20041;-81
2022/06/25 07:21:38;;;;;;;5.78;2.80;;;;;;;26.88;48.22;100786.97;5055002;28;20377;-81
2022/06/25 07:24:06;;;;;;;6.10;3.20;;;;;;;26.89;48.54;100790.53;5054088;28;20053;-82
2022/06/25 07:26:35;;;;;;;8.98;3.13;;;;;;;26.92;48.68;100778.47;5055996;28;20133;-81
2022/06/25 07:29:03;;;;;;;5.88;2.72;;;;;;;26.92;48.33;100784.72;5054832;28;20044;-81
2022/06/25 07:31:30;;;;;;;6.28;3.08;;;;;;;26.94;48.28;100785.41;5057245;28;20049;-81
2022/06/25 07:33:58;;;;;;;6.93;2.80;;;;;;;26.96;48.39;100777.91;5054584;28;20408;-81
2022/06/25 07:36:26;;;;;;;5.07;2.75;;;;;;;26.97;48.17;100778.75;5055803;28;20045;-80
2022/06/25 07:38:53;;;;;;;6.50;3.58;;;;;;;26.98;47.99;100792.16;5054027;28;20404;-80
2022/06/25 07:41:21;;;;;;;7.15;2.80;;;;;;;26.98;48.09;100794.88;5054442;28;20045;-81
2022/06/25 07:43:48;;;;;;;8.40;3.05;;;;;;;26.98;47.95;100796.72;5053214;28;20071;-80
2022/06/25 07:46:16;;;;;;;6.82;3.22;;;;;;;27.00;48.14;100800.13;5052800;28;20060;-79
2022/06/25 07:48:43;;;;;;;8.00;3.17;;;;;;;27.00;48.23;100795.53;5053785;28;20131;-79
2022/06/25 07:54:02;;;;;;;7.20;3.20;;;;;;;27.03;48.10;100791.63;5043976;28;20408;-80
2022/06/25 07:56:30;;;;;;;8.20;3.13;;;;;;;27.03;47.90;100786.19;5055165;28;20048;-80
2022/06/25 07:58:59;;;;;;;8.48;3.33;;;;;;;27.03;47.73;100781.59;5053428;28;20045;-80
2022/06/25 08:01:27;;;;;;;7.10;3.15;;;;;;;27.03;48.04;100778.88;5054725;28;20057;-82
2022/06/25 08:03:55;;;;;;;7.93;3.42;;;;;;;27.05;47.83;100784.09;5053248;28;20045;-82
2022/06/25 08:06:22;;;;;;;10.02;3.60;;;;;;;27.05;48.81;100787.66;5054014;28;20051;-80
2022/06/25 08:08:49;;;;;;;5.80;3.20;;;;;;;27.05;48.52;100789.53;5053890;28;20045;-80
2022/06/25 08:11:17;;;;;;;5.60;3.45;;;;;;;27.05;48.94;100781.38;5055242;28;20381;-80
2022/06/25 08:13:44;;;;;;;9.25;3.40;;;;;;;27.05;49.32;100782.22;5053175;28;20037;-80
2022/06/25 08:16:12;;;;;;;8.63;3.55;;;;;;;27.05;49.08;100784.09;5054509;28;20048;-83
2022/06/25 08:18:40;;;;;;;5.18;3.03;;;;;;;27.06;48.62;100783.06;5054137;28;20037;-83
2022/06/25 08:21:07;;;;;;;6.43;3.10;;;;;;;27.04;48.68;100783.25;5054548;28;20060;-83
2022/06/25 08:23:35;;;;;;;6.35;3.03;;;;;;;27.05;48.81;100787.66;5053664;28;20056;-83
2022/06/25 08:26:02;;;;;;;8.68;3.38;;;;;;;27.05;48.58;100781.38;5052807;28;20049;-83
2022/06/25 08:28:29;;;;;;;7.43;3.10;;;;;;;27.04;48.37;100785.97;5054122;28;20053;-83
2022/06/25 08:30:57;;;;;;;9.02;3.75;;;;;;;27.05;48.76;100784.94;5059109;28;20048;-83
2022/06/25 08:33:25;;;;;;;9.15;3.42;;;;;;;27.06;48.75;100789.38;5073526;28;20049;-83
2022/06/25 08:35:52;;;;;;;5.95;3.03;;;;;;;27.07;48.60;100787.50;5075220;28;20500;-83
2022/06/25 08:38:20;;;;;;;6.38;3.22;;;;;;;27.07;48.62;100785.63;5075130;28;20052;-81
2022/06/25 08:40:47;;;;;;;7.00;3.00;;;;;;;27.08;48.67;100790.03;5074761;28;20044;-81
2022/06/25 08:43:15;;;;;;;6.93;3.30;;;;;;;27.08;48.71;100795.44;5073158;28;20052;-81
2022/06/25 08:45:42;;;;;;;6.30;4.03;;;;;;;27.09;48.47;100790.84;5073028;28;20045;-81
2022/06/25 08:48:21;;;;;;;6.18;3.05;;;;;;;27.10;48.22;100790.72;5073768;28;20045;-81
2022/06/25 08:50:49;;;;;;;5.22;3.15;;;;;;;27.10;48.40;100787.13;5073483;28;20044;-80
2022/06/25 08:53:18;;;;;;;6.00;3.03;;;;;;;27.11;48.24;100786.97;5074567;28;20053;-80
2022/06/25 08:55:46;;;;;;;8.55;3.40;;;;;;;27.11;48.58;100786.97;5075206;28;20099;-81
2022/06/25 08:58:15;;;;;;;5.75;3.33;;;;;;;27.12;48.99;100785.09;5074700;28;20056;-80
2022/06/25 09:00:45;;;;;;;7.47;2.88;;;;;;;27.13;48.65;100792.22;5074100;28;20480;-80
2022/06/25 09:03:12;;;;;;;7.25;3.40;;;;;;;27.13;48.69;100789.50;5073350;28;20060;-80
2022/06/25 09:05:42;;;;;;;5.05;3.15;;;;;;;27.15;48.49;100790.16;5074237;28;20044;-80
2022/06/25 09:08:12;;;;;;;8.05;3.08;;;;;;;27.16;48.36;100785.56;5073827;28;20055;-81
2022/06/25 09:10:44;;;;;;;6.38;3.33;;;;;;;27.17;48.33;100785.38;5073668;28;20385;-81
2022/06/25 09:13:13;;;;;;;7.97;2.95;;;;;;;27.19;48.34;100777.06;5074521;28;20074;-80
2022/06/25 09:15:43;;;;;;;5.57;3.08;;;;;;;27.21;48.13;100775.81;5072592;28;20048;-79
2022/06/25 09:18:17;;;;;;;6.63;3.10;;;;;;;27.23;48.66;100781.94;5073030;28;20045;-81
2022/06/25 09:20:54;;;;;;;5.10;2.90;;;;;;;27.24;48.56;100780.91;5073392;28;20052;-80
2022/06/25 09:23:22;;;;;;;6.35;3.15;;;;;;;27.24;48.28;100772.75;5073622;28;20059;-79
2022/06/25 09:26:10;;;;;;;9.18;3.60;;;;;;;27.26;48.18;100781.53;5076211;28;20083;-79
2022/06/25 09:28:40;;;;;;;8.13;3.58;;;;;;;27.28;48.34;100773.22;5078286;28;20057;-83
2022/06/25 09:31:08;;;;;;;6.00;3.42;;;;;;;27.28;48.08;100778.66;5077786;28;20048;-84
2022/06/25 09:33:38;;;;;;;8.50;3.38;;;;;;;27.29;48.14;100783.06;5077810;28;20388;-78
2022/06/25 09:36:10;;;;;;;7.95;3.58;;;;;;;27.30;48.29;100772.00;5079260;28;20499;-84
2022/06/25 09:38:49;;;;;;;6.50;3.00;;;;;;;27.31;48.45;100768.25;5078927;28;20047;-79
2022/06/25 09:41:16;;;;;;;7.95;3.53;;;;;;;27.32;48.54;100769.09;5077414;28;20048;-81
2022/06/25 09:43:47;;;;;;;6.15;3.10;;;;;;;27.33;48.63;100768.91;5076677;28;20044;-75
2022/06/25 09:46:15;;;;;;;7.55;3.22;;;;;;;27.36;47.68;100759.53;5077340;28;20049;-78
2022/06/25 09:48:43;;;;;;;8.27;3.40;;;;;;;27.40;47.52;100760.84;5076922;28;20063;-80
2022/06/25 09:51:14;;;;;;;8.57;4.53;;;;;;;27.43;48.00;100759.63;5075529;28;20040;-77
2022/06/25 09:53:56;;;;;;;6.28;3.60;;;;;;;27.45;48.05;100754.84;5077050;28;20389;-79
2022/06/25 09:56:25;;;;;;;8.88;5.05;;;;;;;27.45;48.65;100758.41;5076998;28;20472;-80
2022/06/25 09:58:55;;;;;;;18.40;6.05;;;;;;;27.45;49.00;100758.41;5074380;28;20412;-79
2022/06/25 10:01:26;;;;;;;12.38;5.72;;;;;;;27.46;48.87;100762.81;5076944;28;20040;-78
2022/06/25 10:03:55;;;;;;;12.23;5.45;;;;;;;27.46;48.49;100761.97;5076641;28;20047;-78
2022/06/25 10:06:23;;;;;;;16.83;5.68;;;;;;;27.43;48.28;100749.63;5076398;28;20048;-79
2022/06/25 10:08:52;;;;;;;7.18;4.18;;;;;;;27.44;48.30;100751.28;5075283;28;20059;-79
2022/06/25 10:11:26;;;;;;;8.43;4.22;;;;;;;27.44;48.54;100756.72;5076857;28;20041;-83
2022/06/25 10:13:54;;;;;;;9.00;3.47;;;;;;;27.45;47.83;100758.41;5076217;28;20111;-80
2022/06/25 10:16:23;;;;;;;13.18;4.18;;;;;;;27.45;48.13;100757.56;5077210;28;20049;-78
2022/06/25 10:18:52;;;;;;;9.13;4.07;;;;;;;27.45;47.96;100746.69;5076907;28;20053;-83
2022/06/25 10:21:22;;;;;;;7.00;4.18;;;;;;;27.44;48.45;100754.00;5059912;28;20056;-79
2022/06/25 10:23:53;;;;;;;5.78;3.90;;;;;;;27.45;48.23;100746.69;5078116;28;20512;-79
2022/06/25 10:26:21;;;;;;;6.30;3.83;;;;;;;27.46;48.08;100749.22;5076221;28;20056;-80
2022/06/25 10:28:48;;;;;;;5.88;3.25;;;;;;;27.46;48.43;100745.66;5074349;28;20503;-84
2022/06/25 10:31:17;;;;;;;6.22;3.67;;;;;;;27.46;48.60;100743.78;5055038;28;20037;-83
2022/06/25 10:34:04;;;;;;;8.30;3.47;;;;;;;27.47;48.50;100745.50;5056838;28;20045;-85
2022/06/25 10:36:46;;;;;;;8.02;3.78;;;;;;;27.48;48.93;100747.16;5057271;28;20049;-83
2022/06/25 10:39:26;;;;;;;12.48;3.88;;;;;;;27.50;49.01;100744.25;5058726;28;20795;-80
2022/06/25 10:45:03;;;;;;;3.92;3.25;;;;;;;27.53;48.41;100736.56;5056880;28;20052;-80
2022/06/25 10:47:49;;;;;;;6.22;3.58;;;;;;;27.56;47.52;100738.06;5056443;28;20067;-78
2022/06/25 10:50:20;;;;;;;7.20;3.45;;;;;;;27.58;46.76;100741.44;5055457;28;20060;-77
2022/06/25 10:53:03;;;;;;;7.93;3.40;;;;;;;27.61;46.55;100739.19;5056835;28;20072;-77
2022/06/25 10:55:56;;;;;;;8.70;2.92;;;;;;;27.62;46.83;100740.03;5055461;28;20058;-80
2022/06/25 10:58:25;;;;;;;7.07;3.33;;;;;;;27.63;46.16;100729.97;5056168;28;20504;-85
2022/06/25 11:01:03;;;;;;;7.38;3.47;;;;;;;27.63;46.32;100733.56;5054047;28;20378;-84
2022/06/25 11:03:30;;;;;;;7.18;3.83;;;;;;;27.63;46.58;100732.69;5055630;28;20103;-82
2022/06/25 11:06:28;;;;;;;6.15;2.97;;;;;;;27.63;46.49;100725.41;5056552;28;20049;-85
2022/06/25 11:09:07;;;;;;;10.43;3.38;;;;;;;27.66;46.39;100735.06;5055265;28;20408;-80
2022/06/25 11:11:35;;;;;;;6.72;3.45;;;;;;;27.66;46.76;100725.00;5054659;28;20052;-87
2022/06/25 11:14:11;;;;;;;7.72;3.65;;;;;;;27.65;46.46;100726.06;5055064;28;20049;-83
2022/06/25 11:16:39;;;;;;;4.63;2.70;;;;;;;27.65;46.63;100723.34;5056213;28;20511;-82
2022/06/25 11:19:07;;;;;;;9.00;3.13;;;;;;;27.65;46.43;100727.94;5056219;28;20044;-78
2022/06/25 11:21:39;;;;;;;8.65;3.05;;;;;;;27.65;46.33;100723.34;5054829;28;20044;-80
2022/06/25 11:24:14;;;;;;;5.50;3.20;;;;;;;27.65;46.26;100725.22;5054883;28;20053;-79
2022/06/25 11:29:46;;;;;;;5.03;2.90;;;;;;;27.67;46.59;100721.28;5055491;28;20060;-79
2022/06/25 11:32:15;;;;;;;5.20;2.60;;;;;;;27.69;47.26;100723.81;5058821;28;20056;-79
2022/06/25 11:34:43;;;;;;;8.70;2.65;;;;;;;27.71;47.00;100713.56;5058109;28;20430;-80
2022/06/25 11:37:12;;;;;;;5.80;3.25;;;;;;;27.71;46.75;100714.44;5056650;28;20056;-79
2022/06/25 11:39:40;;;;;;;5.70;2.95;;;;;;;27.72;47.26;100704.38;5055485;28;20504;-80
2022/06/25 11:42:10;;;;;;;5.18;2.60;;;;;;;27.73;47.09;100706.06;5055959;28;20052;-81
2022/06/25 11:44:52;;;;;;;8.60;3.22;;;;;;;27.75;46.83;100704.00;5054097;28;20071;-83
2022/06/25 11:47:29;;;;;;;6.47;2.85;;;;;;;27.75;47.31;100704.00;5055583;28;20060;-83
2022/06/25 11:49:58;;;;;;;8.98;3.13;;;;;;;27.74;47.60;100705.91;5056589;28;20045;-82
2022/06/25 11:52:26;;;;;;;9.05;2.92;;;;;;;27.76;47.50;100708.44;5074296;28;20099;-78
2022/06/25 11:54:54;;;;;;;7.53;2.88;;;;;;;27.76;47.44;100700.28;5076133;28;20048;-81
2022/06/25 11:57:34;;;;;;;7.80;2.97;;;;;;;27.78;47.69;100709.91;5075415;28;20045;-77